»·PEaware :: JBU736 KLGB-KSFO

JBU736 :: KLGB-KSFO

FLIGHT INFORMATION

Flight Status: Arrived
Operator:
JetBlue Airways
More flights by this operator :: More flights under this callsign
Pilot: Sanjiv Singh (4490)
Aircraft: AIRBUS A320
(A320)
More flights by this aircraft type
Origin: KLGB Long Beach
United States
Destination: KSFO San Francisco Intl
United States
More flights between these airports :: More routes between these airports
Route: +LAX V299 VTU RZS STOKD SERFR SERFR2
File this flight plan on PilotEdge
Remarks:
Altitude:
(Current/Filed)
32,000ft
Speed:
(Current/Filed)
450kts
Departed: 27-Nov-16 10:34 AM
Arrived: 27-Nov-16 11:41 AM
Distance/Time
Traveled:
307nm/1:06
Distance/Time
To Go:
Arrived

Flight Plot

Page will automatically refresh every two minutes.

Flight plan parsing failed; only flown route is shown


Map Options




Map Legend


Flown Route
Filed Route
Departure Airport
Arrival Airport
Navaid (VOR, NDB)
Fix

Horizontal Profiles

Position Reports

Time Latitude Longitude Heading Altitude Ground
Speed
27-Nov-16 09:53 33.819007 -118.146016 90 68ft 0kts
27-Nov-16 09:54 33.819007 -118.146016 90 68ft 0kts
27-Nov-16 09:55 33.819007 -118.146016 90 68ft 0kts
27-Nov-16 09:56 33.819007 -118.146016 90 68ft 0kts
27-Nov-16 09:57 33.819007 -118.146016 90 68ft 0kts
27-Nov-16 09:58 33.819007 -118.146016 90 68ft 0kts
27-Nov-16 09:59 33.819007 -118.146016 90 68ft 0kts
27-Nov-16 10:00 33.819007 -118.146016 90 68ft 0kts
27-Nov-16 10:01 33.819007 -118.146016 90 68ft 0kts
27-Nov-16 10:02 33.819007 -118.146016 90 68ft 0kts
27-Nov-16 10:03 33.819007 -118.146016 90 68ft 0kts
27-Nov-16 10:04 33.819007 -118.146016 90 68ft 0kts
27-Nov-16 10:05 33.819007 -118.146016 90 68ft 0kts
27-Nov-16 10:06 33.819007 -118.146016 90 68ft 0kts
27-Nov-16 10:07 33.819007 -118.146016 90 68ft 0kts
27-Nov-16 10:08 33.819007 -118.146016 90 68ft 0kts
27-Nov-16 10:09 33.819007 -118.146016 90 68ft 0kts
27-Nov-16 10:10 33.819007 -118.146016 90 68ft 0kts
27-Nov-16 10:11 33.819007 -118.146016 90 68ft 0kts
27-Nov-16 10:12 33.819007 -118.146016 90 68ft 0kts
27-Nov-16 10:13 33.819007 -118.146016 90 68ft 0kts
27-Nov-16 10:14 33.819007 -118.146016 90 68ft 0kts
27-Nov-16 10:15 33.819007 -118.146016 90 68ft 0kts
27-Nov-16 10:16 33.819007 -118.146289 90 68ft 0kts
27-Nov-16 10:17 33.819503 -118.146949 191 68ft 0kts
27-Nov-16 10:18 33.819503 -118.146949 191 68ft 0kts
27-Nov-16 10:19 33.819503 -118.146949 191 68ft 0kts
27-Nov-16 10:20 33.819503 -118.146949 191 68ft 0kts
27-Nov-16 10:21 33.819503 -118.146949 191 68ft 0kts
27-Nov-16 10:22 33.818827 -118.146996 180 68ft 7kts
27-Nov-16 10:23 33.815090 -118.146214 134 68ft 18kts
27-Nov-16 10:24 33.810363 -118.140497 135 69ft 16kts
27-Nov-16 10:25 33.808388 -118.138086 134 68ft 9kts
27-Nov-16 10:26 33.807614 -118.137586 202 68ft 0kts
27-Nov-16 10:27 33.808512 -118.140117 316 68ft 48kts
27-Nov-16 10:28 33.836305 -118.173446 313 2165ft 169kts
27-Nov-16 10:29 33.847660 -118.247007 281 2981ft 259kts
27-Nov-16 10:30 33.852234 -118.330426 261 4327ft 267kts
27-Nov-16 10:31 33.836198 -118.410010 262 5990ft 247kts
27-Nov-16 10:32 33.821231 -118.489713 262 5990ft 245kts
27-Nov-16 10:33 33.806949 -118.569481 262 8325ft 249kts
27-Nov-16 10:34 33.792955 -118.651162 262 10902ft 255kts
27-Nov-16 10:35 33.776247 -118.738540 261 12367ft 301kts
27-Nov-16 10:36 33.788058 -118.826461 326 14913ft 297kts
27-Nov-16 10:37 33.851961 -118.887986 313 17127ft 301kts
27-Nov-16 10:38 33.904118 -118.969956 310 18160ft 334kts
27-Nov-16 10:39 33.974728 -119.051671 311 19250ft 359kts
27-Nov-16 10:40 34.042866 -119.141569 310 20670ft 368kts
27-Nov-16 10:41 34.109568 -119.230759 311 22013ft 375kts
27-Nov-16 10:42 34.178318 -119.322799 311 23313ft 385kts
27-Nov-16 10:43 34.250444 -119.419856 312 24775ft 393kts
27-Nov-16 10:44 34.322658 -119.517318 313 26535ft 392kts
27-Nov-16 10:45 34.391989 -119.611130 314 28160ft 386kts
27-Nov-16 10:46 34.462648 -119.706627 313 29541ft 383kts
27-Nov-16 10:47 34.535699 -119.798804 320 30774ft 377kts
27-Nov-16 10:48 34.614292 -119.882903 319 31723ft 377kts
27-Nov-16 10:49 34.691737 -119.966103 318 32179ft 364kts
27-Nov-16 10:50 34.767383 -120.047572 318 32180ft 361kts
27-Nov-16 10:51 34.841893 -120.127793 318 32181ft 358kts
27-Nov-16 10:52 34.916697 -120.208635 318 32141ft 358kts
27-Nov-16 10:53 34.991512 -120.288801 320 32146ft 352kts
27-Nov-16 10:54 35.064086 -120.366338 319 32140ft 349kts
27-Nov-16 10:55 35.132395 -120.439398 320 32150ft 352kts
27-Nov-16 10:56 35.202461 -120.514628 320 32137ft 349kts
27-Nov-16 10:57 35.275507 -120.593208 320 32138ft 349kts
27-Nov-16 10:58 35.347923 -120.671291 320 32139ft 350kts
27-Nov-16 10:59 35.420616 -120.749675 319 32139ft 346kts
27-Nov-16 11:00 35.493390 -120.827340 324 32133ft 349kts
27-Nov-16 11:01 35.570410 -120.898761 324 32140ft 348kts
27-Nov-16 11:02 35.647444 -120.970335 325 32134ft 350kts
27-Nov-16 11:03 35.724535 -121.042195 325 32140ft 350kts
27-Nov-16 11:04 35.802603 -121.115106 325 32130ft 356kts
27-Nov-16 11:05 35.881643 -121.189129 325 32140ft 356kts
27-Nov-16 11:06 35.959607 -121.262327 325 32129ft 355kts
27-Nov-16 11:07 36.038317 -121.336403 326 31420ft 359kts
27-Nov-16 11:08 36.118526 -121.403994 330 30369ft 348kts
27-Nov-16 11:09 36.195856 -121.464303 330 28977ft 342kts
27-Nov-16 11:10 36.274888 -121.526123 330 27278ft 331kts
27-Nov-16 11:11 36.351181 -121.585914 330 25525ft 322kts
27-Nov-16 11:12 36.425790 -121.644537 330 23756ft 317kts
27-Nov-16 11:13 36.498939 -121.701798 329 22059ft 309kts
27-Nov-16 11:14 36.570473 -121.758415 329 20312ft 304kts
27-Nov-16 11:15 36.640801 -121.814121 328 18572ft 297kts
27-Nov-16 11:16 36.709659 -121.868765 328 16927ft 291kts
27-Nov-16 11:17 36.783525 -121.905199 343 15324ft 286kts
27-Nov-16 11:18 36.860067 -121.927188 343 13739ft 282kts
27-Nov-16 11:19 36.937068 -121.948802 343 12173ft 286kts
27-Nov-16 11:20 37.013336 -121.977132 339 10595ft 288kts
27-Nov-16 11:21 37.084321 -122.004939 339 10010ft 251kts
27-Nov-16 11:22 37.145297 -122.028704 339 9084ft 226kts
27-Nov-16 11:23 37.200810 -122.050381 338 8107ft 201kts
27-Nov-16 11:24 37.258224 -122.072900 339 7171ft 216kts
27-Nov-16 11:25 37.315129 -122.095220 339 6189ft 215kts
27-Nov-16 11:26 37.371913 -122.117549 339 5161ft 214kts
27-Nov-16 11:27 37.428164 -122.139699 339 4248ft 213kts
27-Nov-16 11:28 37.481228 -122.158622 344 3490ft 192kts
27-Nov-16 11:29 37.525277 -122.170774 344 2461ft 196kts
27-Nov-16 11:30 37.551546 -122.214061 299 2436ft 156kts
27-Nov-16 11:31 37.573157 -122.266797 300 1584ft 143kts
27-Nov-16 11:32 37.587986 -122.302038 299 997ft 131kts
27-Nov-16 11:33 37.605092 -122.342780 299 307ft 131kts
27-Nov-16 11:34 37.617097 -122.371212 299 21ft 28kts
27-Nov-16 11:35 37.619000 -122.377018 268 21ft 9kts
27-Nov-16 11:36 37.618685 -122.378904 243 21ft 4kts
27-Nov-16 11:37 37.616656 -122.379637 203 22ft 12kts
27-Nov-16 11:38 37.612313 -122.382498 208 22ft 22kts
27-Nov-16 11:39 37.611252 -122.387273 261 21ft 14kts
27-Nov-16 11:40 37.610933 -122.389505 339 21ft 6kts
27-Nov-16 11:41 37.611107 -122.389589 338 22ft 0kts

Navigation Log

Ident Type
Flight plan parsing failed, navigation log unavailable